Morley, Alberta

9:10 PM MDT on October 25, 2014 (GMT -0600)
Ghost Lake Village | Change Station
CLOSE
Current Station
Personal Weather Station
Location: Cochrane, AB
Elevation: 3973 ft
Nearby Weather Stations

Elev 3973 ft 51.21 °N, 114.76 °W | Updated 15 seconds ago

Scattered Clouds
Scattered Clouds
37.8 °F
Feels Like 38 °F
N
0.0
Wind Variable Wind from North
Gusts 0.0 mph

Tomorrow is forecast to be nearly the same temperature as today.

Today
High -- | Low -- °F
--% Chance of Precip.
Yesterday
High -- | Low -- °F
Precip. -- in
8:20 AM 6:26 PM
Waxing Crescent, 5% visible
Pressure 29.57 in
Visibility 9.0 miles
Clouds Scattered Clouds 24000 ft
Windchill 38 °F
Dew Point 16 °F
Humidity 40%
Rainfall 0.00 in
Snow Depth Not available.
UV 0 out of 12
Pollen Not available.
Air Quality Not available.
Flu Activity Not available.
METAR CYBW 260300Z AUTO 16009G15KT 9SM SCT240 04/00 A2946 RMK PRESFR SLP012 DENSITY ALT 4000FT

More Conditions Fewer Conditions

Pressure 29.57 in
Visibility 9.0 miles
Clouds Scattered Clouds 24000 ft
Windchill 38 °F
Dew Point 16 °F
Humidity 40%
Rainfall 0.00 in
Snow Depth Not available.
UV 0 out of 12
Pollen Not available.
Air Quality Not available.
Flu Activity Not available.
METAR CYBW 260300Z AUTO 16009G15KT 9SM SCT240 04/00 A2946 RMK PRESFR SLP012 DENSITY ALT 4000FT

More Conditions Fewer Conditions

10-Day Weather Forecast

Almanac

Astronomy

Oct. 25, 2014 Rise Set
Actual Time 8:20 AM MDT 6:26 PM MDT
Civil Twilight 7:45 AM MDT 7:00 PM MDT
Nautical Twilight 7:07 AM MDT 7:38 PM MDT
Astronomical Twilight 6:28 AM MDT 8:17 PM MDT
Moon 10:12 AM MDT (10/25) 7:42 PM MDT (10/25)
Length of Visible Light 11h 14m
Length of Day
10h 05m
Tomorrow will be 3m 39s shorter.
Waxing Crescent, 5% of the Moon is Illuminated
Today
Waxing Crescent
Oct 30
First Quarter
Nov 6
Full
Nov 14
Last Quarter
Nov 22
New

Today's Extremes

Country Highs Country Lows

Community

WunderPhotos

Upload Photos

1,765,093 photos uploaded!

Nearby

Snow Depth

Not available.

Earthquake Activity

City Distance Mag. Time & Date
No recent earthquake activity has been reported nearby.
Minimum magnitude displayed is 2.5.

Coastal Water Temperatures

Place Temperature
No Stations Reporting

Nearby Weather Stations